createdAt,value
2022-10-21T00:01:42.845Z,10.02
2022-10-21T00:06:47.208Z,10.02
2022-10-21T00:11:51.208Z,10.01
2022-10-21T00:16:55.302Z,10.01
2022-10-21T00:21:58.636Z,9.99
2022-10-21T00:27:03.043Z,9.92
2022-10-21T00:32:06.494Z,9.87
2022-10-21T00:37:13.222Z,9.78
2022-10-21T00:42:22.251Z,9.66
2022-10-21T00:47:25.306Z,9.58
2022-10-21T00:52:32.131Z,9.51
2022-10-21T00:57:36.312Z,9.46
2022-10-21T01:02:40.242Z,9.38
2022-10-21T01:07:44.299Z,9.30
2022-10-21T01:13:44.072Z,9.23
2022-10-21T01:19:13.234Z,9.13
2022-10-21T01:24:53.500Z,9.15
2022-10-21T01:30:06.496Z,9.08
2022-10-21T01:35:26.987Z,9.04
2022-10-21T01:40:48.837Z,9.03
2022-10-21T01:46:00.357Z,8.97
2022-10-21T01:51:06.602Z,8.94
2022-10-21T01:56:12.497Z,8.85
2022-10-21T02:01:19.339Z,8.83
2022-10-21T02:06:22.615Z,8.78
2022-10-21T02:11:26.671Z,8.72
2022-10-21T02:16:38.012Z,8.69
2022-10-21T02:21:41.167Z,8.64
2022-10-21T02:26:45.035Z,8.56
2022-10-21T02:32:15.551Z,8.55
2022-10-21T02:37:30.973Z,8.52
2022-10-21T02:42:39.403Z,8.49
2022-10-21T02:47:44.509Z,8.46
2022-10-21T02:52:47.713Z,8.43
2022-10-21T02:57:51.325Z,8.37
2022-10-21T03:02:54.289Z,8.30
2022-10-21T03:07:57.766Z,8.27
2022-10-21T03:13:00.851Z,8.20
2022-10-21T03:18:04.356Z,8.12
2022-10-21T03:23:07.974Z,8.20
2022-10-21T03:28:11.784Z,8.16
2022-10-21T03:33:15.217Z,8.13
2022-10-21T03:38:18.665Z,8.10
2022-10-21T03:43:21.650Z,8.04
2022-10-21T03:48:25.038Z,8.03
2022-10-21T03:53:42.909Z,8.10
2022-10-21T03:58:46.665Z,8.08
2022-10-21T04:03:50.782Z,8.08
2022-10-21T04:08:54.181Z,8.03
2022-10-21T04:13:58.533Z,7.90
2022-10-21T04:19:02.132Z,7.96
2022-10-21T04:24:06.296Z,7.94
2022-10-21T04:29:09.521Z,7.91
2022-10-21T04:34:12.586Z,7.96
2022-10-21T04:39:15.669Z,7.98
2022-10-21T04:44:19.294Z,7.83
2022-10-21T04:49:22.483Z,7.75
2022-10-21T04:54:26.294Z,7.75
2022-10-21T04:59:29.613Z,7.75
2022-10-21T05:04:33.061Z,7.78
2022-10-21T05:09:36.471Z,7.82
2022-10-21T05:14:40.099Z,7.86
2022-10-21T05:19:43.733Z,7.93
2022-10-21T05:24:47.308Z,8.02
2022-10-21T05:29:50.248Z,8.10
2022-10-21T05:34:53.778Z,8.24
2022-10-21T05:39:57.520Z,8.32
2022-10-21T05:45:01.135Z,8.49
2022-10-21T05:50:05.042Z,8.73
2022-10-21T05:55:09.698Z,8.96
2022-10-21T06:00:13.489Z,9.24
2022-10-21T06:05:17.455Z,9.52
2022-10-21T06:10:21.859Z,10.11
2022-10-21T06:15:25.530Z,13.97
2022-10-21T06:20:29.252Z,18.27
2022-10-21T06:25:32.939Z,21.03
2022-10-21T06:30:36.364Z,22.87
2022-10-21T06:35:39.794Z,24.13
2022-10-21T06:40:43.467Z,25.12
2022-10-21T06:45:47.514Z,25.64
2022-10-21T06:50:52.080Z,25.65
2022-10-21T06:56:10.981Z,26.58
2022-10-21T07:01:34.820Z,27.55
2022-10-21T07:06:46.597Z,27.55
2022-10-21T07:11:49.625Z,28.74
2022-10-21T07:16:54.192Z,26.81
2022-10-21T07:21:57.919Z,27.01
2022-10-21T07:27:01.807Z,25.84
2022-10-21T07:32:05.027Z,26.15
2022-10-21T07:37:10.046Z,26.80
2022-10-21T07:42:13.043Z,27.35
2022-10-21T07:47:16.556Z,27.18
2022-10-21T07:52:20.057Z,24.45
2022-10-21T07:57:23.901Z,25.89
2022-10-21T08:02:27.991Z,27.15
2022-10-21T08:07:32.316Z,21.62
2022-10-21T08:12:36.544Z,24.35
2022-10-21T08:17:40.277Z,27.48
2022-10-21T08:22:43.189Z,28.69
2022-10-21T08:27:46.614Z,27.06
2022-10-21T08:32:49.552Z,28.48
2022-10-21T08:37:52.974Z,23.79
2022-10-21T08:42:56.669Z,20.98
2022-10-21T08:48:04.196Z,21.77
2022-10-21T08:53:15.411Z,19.83
2022-10-21T08:58:22.186Z,19.56
2022-10-21T09:03:54.757Z,19.28
2022-10-21T09:09:23.033Z,20.39
2022-10-21T09:14:39.148Z,23.58
2022-10-21T09:19:59.082Z,22.32
2022-10-21T09:25:19.863Z,20.62
2022-10-21T09:30:24.383Z,20.89
2022-10-21T09:35:34.801Z,20.29
2022-10-21T09:40:38.608Z,19.11
2022-10-21T09:45:45.766Z,18.60
2022-10-21T09:51:05.378Z,19.03
2022-10-21T09:56:16.797Z,21.77
2022-10-21T10:01:23.915Z,23.17
2022-10-21T10:06:39.185Z,24.07
2022-10-21T10:12:00.747Z,24.15
2022-10-21T10:17:31.065Z,24.58
2022-10-21T10:22:43.262Z,24.44
2022-10-21T10:28:05.365Z,23.97
2022-10-21T10:33:14.809Z,23.69
2022-10-21T10:38:30.277Z,23.72
2022-10-21T10:43:36.469Z,24.20
2022-10-21T10:48:49.103Z,23.58
2022-10-21T10:54:07.709Z,23.79
2022-10-21T10:59:40.052Z,23.13
2022-10-21T11:05:13.985Z,22.47
2022-10-21T11:10:37.276Z,22.76
2022-10-21T11:16:02.304Z,22.21
2022-10-21T11:21:39.296Z,22.59
2022-10-21T11:27:03.795Z,22.58
2022-10-21T11:32:20.702Z,23.12
2022-10-21T11:37:40.737Z,23.59
2022-10-21T11:42:48.882Z,23.47
2022-10-21T11:48:08.302Z,23.87
2022-10-21T11:53:38.530Z,23.80
2022-10-21T11:58:48.666Z,22.85
2022-10-21T12:04:10.629Z,22.33
2022-10-21T12:09:23.342Z,23.24
2022-10-21T12:14:47.573Z,23.03
2022-10-21T12:20:14.239Z,23.77
2022-10-21T12:25:29.959Z,23.49
2022-10-21T12:31:00.609Z,22.81
2022-10-21T12:36:28.598Z,23.53
2022-10-21T12:41:42.830Z,22.78
2022-10-21T12:46:57.805Z,23.78
2022-10-21T12:52:09.565Z,23.83
2022-10-21T12:57:32.575Z,23.50
2022-10-21T13:02:59.169Z,23.75
2022-10-21T13:08:52.801Z,23.39
2022-10-21T13:14:14.564Z,24.81
2022-10-21T13:19:18.191Z,24.97
2022-10-21T13:24:30.768Z,24.67
2022-10-21T13:29:43.374Z,24.08
2022-10-21T13:34:57.950Z,22.53
2022-10-21T13:40:09.446Z,21.80
2022-10-21T13:45:25.441Z,23.06
2022-10-21T13:50:33.142Z,23.51
2022-10-21T13:55:36.193Z,23.59
2022-10-21T14:00:39.650Z,23.52
2022-10-21T14:05:57.351Z,23.08
2022-10-21T14:11:03.657Z,22.47
2022-10-21T14:16:09.001Z,22.89
2022-10-21T14:21:21.092Z,21.68
2022-10-21T14:26:28.161Z,22.01
2022-10-21T14:31:32.730Z,22.15
2022-10-21T14:37:00.740Z,22.25
2022-10-21T14:42:12.124Z,22.28
2022-10-21T14:47:25.281Z,21.97
2022-10-21T14:52:36.853Z,21.82
2022-10-21T14:57:53.446Z,22.34
2022-10-21T15:02:58.571Z,21.87
2022-10-21T15:08:20.224Z,21.15
2022-10-21T15:13:26.175Z,20.35
2022-10-21T15:18:43.341Z,21.10
2022-10-21T15:23:57.292Z,19.61
2022-10-21T15:29:00.733Z,19.31
2022-10-21T15:34:06.148Z,18.86
2022-10-21T15:39:09.752Z,18.87
2022-10-21T15:44:21.027Z,18.54
2022-10-21T15:49:27.841Z,18.01
2022-10-21T15:54:31.042Z,17.90
2022-10-21T15:59:34.780Z,17.38
2022-10-21T16:04:38.267Z,17.21
2022-10-21T16:09:41.755Z,16.96
2022-10-21T16:14:44.843Z,16.77
2022-10-21T16:19:48.655Z,16.49
2022-10-21T16:24:51.755Z,16.35
2022-10-21T16:29:55.178Z,16.04
2022-10-21T16:34:58.520Z,15.80
2022-10-21T16:40:02.519Z,15.41
2022-10-21T16:45:06.155Z,15.14
2022-10-21T16:50:20.053Z,14.98
2022-10-21T16:55:23.324Z,14.78
2022-10-21T17:00:27.447Z,14.53
2022-10-21T17:05:31.101Z,14.46
2022-10-21T17:10:34.553Z,14.26
2022-10-21T17:15:38.278Z,14.01
2022-10-21T17:20:41.924Z,14.21
2022-10-21T17:25:45.616Z,14.14
2022-10-21T17:30:49.568Z,13.81
2022-10-21T17:35:52.689Z,13.94
2022-10-21T17:40:56.211Z,13.94
2022-10-21T17:45:59.326Z,13.69
2022-10-21T17:51:03.272Z,13.65
2022-10-21T17:56:07.832Z,13.52
2022-10-21T18:01:13.497Z,13.59
2022-10-21T18:06:17.369Z,13.73
2022-10-21T18:11:21.550Z,13.70
2022-10-21T18:16:24.624Z,13.74
2022-10-21T18:21:27.877Z,13.59
2022-10-21T18:26:32.661Z,13.74
2022-10-21T18:31:37.601Z,13.85
2022-10-21T18:36:42.492Z,13.70
2022-10-21T18:41:46.432Z,13.46
2022-10-21T18:46:52.407Z,13.32
2022-10-21T18:51:58.656Z,13.05
2022-10-21T18:57:02.310Z,12.83
2022-10-21T19:02:06.634Z,12.83
2022-10-21T19:07:10.263Z,12.72
2022-10-21T19:12:17.389Z,12.46
2022-10-21T19:17:24.055Z,12.26
2022-10-21T19:27:39.554Z,12.05
2022-10-21T19:32:45.300Z,11.93
2022-10-21T19:37:49.920Z,11.85
2022-10-21T19:42:53.061Z,11.87
2022-10-21T19:47:58.778Z,11.82
2022-10-21T19:53:04.417Z,11.96
2022-10-21T19:58:09.083Z,12.07
2022-10-21T20:03:15.027Z,12.11
2022-10-21T20:08:19.147Z,12.23
2022-10-21T20:13:24.442Z,12.18
2022-10-21T20:18:28.980Z,12.13
2022-10-21T20:23:32.653Z,12.07
2022-10-21T20:28:37.562Z,11.89
2022-10-21T20:33:44.865Z,11.73
2022-10-21T20:38:50.240Z,11.60
2022-10-21T20:43:54.960Z,11.43
2022-10-21T20:48:58.363Z,11.23
2022-10-21T20:54:05.741Z,11.04
2022-10-21T20:59:12.444Z,11.02
2022-10-21T21:04:20.918Z,10.85
2022-10-21T21:14:47.537Z,10.69
2022-10-21T21:19:51.586Z,10.55
2022-10-21T21:24:55.196Z,10.43
2022-10-21T21:29:58.473Z,10.39
2022-10-21T21:35:05.234Z,10.33
2022-10-21T21:40:12.921Z,10.23
2022-10-21T21:45:16.572Z,10.13
2022-10-21T21:50:20.106Z,10.12
2022-10-21T21:55:23.125Z,10.01
2022-10-21T22:00:28.430Z,10.00
2022-10-21T22:05:34.319Z,9.99
2022-10-21T22:10:39.195Z,9.95
2022-10-21T22:15:48.151Z,9.95
2022-10-21T22:20:52.223Z,10.00
2022-10-21T22:25:56.423Z,10.13
2022-10-21T22:31:02.219Z,10.04
2022-10-21T22:36:06.770Z,9.95
2022-10-21T22:41:12.675Z,9.82
2022-10-21T22:51:39.994Z,9.57
2022-10-21T22:56:43.072Z,9.47
2022-10-21T23:01:46.477Z,9.46
2022-10-21T23:06:49.438Z,9.45
2022-10-21T23:11:53.061Z,9.41
2022-10-21T23:16:56.116Z,9.24
2022-10-21T23:21:59.066Z,9.22
2022-10-21T23:27:02.235Z,9.10
2022-10-21T23:32:06.022Z,9.12
2022-10-21T23:37:09.131Z,9.05
2022-10-21T23:42:12.698Z,8.98
2022-10-21T23:47:16.356Z,8.91
2022-10-21T23:52:19.847Z,8.70
2022-10-21T23:57:24.032Z,8.59
